Birmingham, Ohio
Current Conditions -  °F | °C
As of 2:53 AM on Friday 21 Nov 2014 (Local Time) from KLPR Reporting Station
Broken Clouds Broken Clouds  
Wind Chill:   Ceiling: 4800
Heat Index: 19°   Visibility: 10mi
Dew Point: 12°   Wind: 8mph
Humidity: 74%   Direction: 280°W
Pressure: 30.25"   Gusts: NA
Location:  41.33°N, 82.36°W
Report Text: KLPR 210753Z AUTO 28007KT 10SM BKN048 BKN065 M07/M11 A3025 RMK AO2 SLP255 T10721111 TSNO
Loading
Personal Weather Stations






























Interactive Weather Map New forecast layout! Learn more

10-Day Weather Forecast

Advertisements
Track Severe Weather on mobile